Time;durP1;ratioP1;P1;durP2;ratioP2;P2;SDS_P1;SDS_P2;PMS_P1;PMS_P2;Temp;Humidity;BMP_temperature;BMP_pressure;BME280_temperature;BME280_humidity;BME280_pressure;Samples;Min_cycle;Max_cycle;Signal;HPM_P1;HPM_P2
2021/08/15 00:02:14;;;;;;;13.02;4.68;;;;;;;13.71;100.00;101496.81;4914097;29;20407;-79
2021/08/15 00:04:40;;;;;;;13.23;4.80;;;;;;;13.71;100.00;101491.53;4890068;29;20115;-79
2021/08/15 00:07:07;;;;;;;14.65;5.05;;;;;;;13.70;100.00;101495.97;4895355;29;20048;-79
2021/08/15 00:09:33;;;;;;;18.33;4.53;;;;;;;13.69;100.00;101494.31;4928780;29;20036;-80
2021/08/15 00:11:58;;;;;;;17.25;5.07;;;;;;;13.70;100.00;101501.25;4926593;29;20131;-79
2021/08/15 00:14:24;;;;;;;20.25;5.63;;;;;;;13.59;100.00;101486.47;4902769;29;20104;-79
2021/08/15 00:16:49;;;;;;;17.60;4.80;;;;;;;13.56;100.00;101470.97;4906631;29;20050;-79
2021/08/15 00:19:15;;;;;;;15.63;4.80;;;;;;;13.59;100.00;101468.00;4890081;29;20574;-79
2021/08/15 00:21:40;;;;;;;13.48;4.85;;;;;;;13.56;100.00;101464.84;4917970;29;20475;-81
2021/08/15 00:24:06;;;;;;;16.20;5.25;;;;;;;13.55;100.00;101469.28;4887645;29;20052;-80
2021/08/15 00:26:32;;;;;;;16.55;4.95;;;;;;;13.53;100.00;101457.25;4897690;29;20032;-80
2021/08/15 00:28:58;;;;;;;14.05;4.25;;;;;;;13.53;100.00;101465.97;4881288;29;20033;-79
2021/08/15 00:31:27;;;;;;;17.65;4.88;;;;;;;13.52;100.00;101464.31;4887164;29;20060;-79
2021/08/15 00:34:00;;;;;;;15.20;5.20;;;;;;;13.51;100.00;101456.56;4880696;29;20039;-78
2021/08/15 00:36:25;;;;;;;15.70;4.75;;;;;;;13.50;100.00;101454.91;4883034;29;20040;-80
2021/08/15 00:38:58;;;;;;;19.55;5.03;;;;;;;13.48;100.00;101467.41;4870604;29;20028;-78
2021/08/15 00:41:24;;;;;;;18.05;5.50;;;;;;;13.49;100.00;101474.34;4882217;29;20051;-83
2021/08/15 00:43:49;;;;;;;19.42;5.35;;;;;;;13.59;100.00;101452.19;4883932;29;20040;-79
2021/08/15 00:46:15;;;;;;;12.90;5.15;;;;;;;13.61;100.00;101457.31;4898465;29;20090;-82
2021/08/15 00:48:41;;;;;;;14.05;4.97;;;;;;;13.61;100.00;101452.88;4886273;29;20039;-79
2021/08/15 00:51:06;;;;;;;18.40;5.50;;;;;;;13.61;100.00;101449.41;4893688;29;20036;-79
2021/08/15 00:53:34;;;;;;;16.92;5.38;;;;;;;13.66;100.00;101455.09;4903358;29;20517;-81
2021/08/15 00:56:02;;;;;;;13.35;5.35;;;;;;;13.68;100.00;101455.75;4885081;29;20074;-80
2021/08/15 00:58:31;;;;;;;16.98;4.88;;;;;;;13.68;100.00;101442.56;4884923;29;20039;-78
2021/08/15 01:01:00;;;;;;;18.70;4.95;;;;;;;13.82;100.00;101449.13;4885243;29;20103;-80
2021/08/15 01:03:26;;;;;;;18.67;5.00;;;;;;;13.86;100.00;101455.75;4888723;29;20043;-78
2021/08/15 01:05:51;;;;;;;19.08;5.20;;;;;;;13.81;100.00;101450.94;4890267;29;20031;-81
2021/08/15 01:08:17;;;;;;;18.23;5.70;;;;;;;13.81;100.00;101450.13;4889063;29;20040;-81
2021/08/15 01:10:42;;;;;;;14.23;4.60;;;;;;;13.80;100.00;101445.81;4889422;29;20064;-78
2021/08/15 01:13:10;;;;;;;13.13;5.18;;;;;;;13.87;100.00;101430.22;4868800;29;20118;-80
2021/08/15 01:15:37;;;;;;;12.45;4.70;;;;;;;13.90;100.00;101438.66;4890156;29;20248;-79
2021/08/15 01:18:18;;;;;;;21.42;5.40;;;;;;;13.97;100.00;101436.25;4890543;29;20509;-79
2021/08/15 01:20:45;;;;;;;17.45;5.32;;;;;;;13.92;100.00;101426.16;4903054;29;20050;-81
2021/08/15 01:23:10;;;;;;;17.25;4.97;;;;;;;13.94;100.00;101432.13;4904434;29;20103;-80
2021/08/15 01:25:36;;;;;;;20.48;5.45;;;;;;;13.92;100.00;101431.44;4885285;29;20032;-80
2021/08/15 01:28:02;;;;;;;12.23;4.60;;;;;;;13.97;100.00;101442.34;4875649;29;20043;-81
2021/08/15 01:30:27;;;;;;;18.98;5.45;;;;;;;13.97;100.00;101421.25;4903795;29;20072;-80
2021/08/15 01:32:53;;;;;;;18.75;5.53;;;;;;;14.03;100.00;101417.16;4906552;29;20042;-81
2021/08/15 01:35:19;;;;;;;18.75;5.00;;;;;;;14.04;100.00;101418.84;4888779;29;20495;-81
2021/08/15 01:37:45;;;;;;;20.52;4.93;;;;;;;14.17;100.00;101410.53;4902016;29;20040;-81
2021/08/15 01:40:12;;;;;;;17.90;4.95;;;;;;;14.13;100.00;101417.09;4879065;29;20486;-82
2021/08/15 01:42:37;;;;;;;14.15;4.53;;;;;;;14.14;100.00;101427.47;4901409;29;20036;-80
2021/08/15 01:45:09;;;;;;;13.25;4.78;;;;;;;14.15;100.00;101415.94;4888211;29;20123;-80
2021/08/15 01:47:34;;;;;;;16.63;4.53;;;;;;;14.14;100.00;101416.09;4900191;29;20125;-80
2021/08/15 01:50:00;;;;;;;17.50;4.97;;;;;;;14.20;100.00;101424.25;4884905;29;20459;-80
2021/08/15 01:52:25;;;;;;;20.25;4.45;;;;;;;14.17;100.00;101413.16;4888173;29;20032;-80
2021/08/15 01:54:51;;;;;;;14.80;5.18;;;;;;;14.23;100.00;101409.91;4906529;29;20035;-80
2021/08/15 01:57:16;;;;;;;10.05;4.38;;;;;;;14.24;100.00;101408.94;4887222;29;20138;-78
2021/08/15 01:59:42;;;;;;;17.65;4.07;;;;;;;14.24;100.00;101414.22;4899747;29;20046;-78
2021/08/15 02:02:07;;;;;;;13.63;5.05;;;;;;;14.23;100.00;101415.19;4878681;29;20039;-79
2021/08/15 02:04:33;;;;;;;9.25;4.25;;;;;;;14.26;100.00;101414.88;4909226;29;20095;-79
2021/08/15 02:06:58;;;;;;;14.98;5.03;;;;;;;14.32;100.00;101416.06;4901400;29;20148;-79
2021/08/15 02:09:24;;;;;;;12.02;4.05;;;;;;;14.35;100.00;101413.13;4907423;29;20044;-78
2021/08/15 02:11:50;;;;;;;15.40;4.55;;;;;;;14.31;100.00;101406.50;4867276;29;20525;-79
2021/08/15 02:14:15;;;;;;;18.67;4.70;;;;;;;14.36;100.00;101397.13;4910408;29;20043;-79
2021/08/15 02:16:41;;;;;;;13.38;4.20;;;;;;;14.40;100.00;101411.66;4895897;29;20063;-80
2021/08/15 02:19:06;;;;;;;9.88;4.22;;;;;;;14.38;100.00;101407.53;4893580;29;20028;-78
2021/08/15 02:21:32;;;;;;;11.45;4.18;;;;;;;14.49;100.00;101422.28;4916488;29;20510;-79
2021/08/15 02:23:57;;;;;;;11.35;4.28;;;;;;;14.62;100.00;101408.69;4909791;29;20111;-80
2021/08/15 02:26:23;;;;;;;9.55;4.25;;;;;;;14.70;100.00;101420.13;4902497;29;20123;-78
2021/08/15 02:28:48;;;;;;;9.95;4.40;;;;;;;14.65;100.00;101421.56;4895966;29;20044;-79
2021/08/15 02:31:14;;;;;;;10.88;4.38;;;;;;;14.62;100.00;101424.53;4874553;29;20118;-79
2021/08/15 02:33:39;;;;;;;10.68;4.13;;;;;;;14.63;100.00;101418.28;4905218;29;20032;-81
2021/08/15 02:36:05;;;;;;;14.70;4.75;;;;;;;14.73;100.00;101419.81;4882088;29;20114;-78
2021/08/15 02:38:30;;;;;;;21.92;5.07;;;;;;;14.78;100.00;101416.69;4900301;29;20046;-81
2021/08/15 02:40:56;;;;;;;13.77;4.40;;;;;;;14.78;100.00;101408.78;4885155;29;20541;-80
2021/08/15 02:43:21;;;;;;;12.88;3.90;;;;;;;14.84;100.00;101408.13;4867664;29;20039;-80
2021/08/15 02:45:47;;;;;;;18.05;4.95;;;;;;;14.89;100.00;101399.75;4898727;29;20036;-80
2021/08/15 02:48:12;;;;;;;14.27;4.85;;;;;;;14.81;100.00;101382.06;4867943;29;20035;-78
2021/08/15 02:50:38;;;;;;;13.90;4.50;;;;;;;14.87;100.00;101388.53;4875164;29;20045;-79
2021/08/15 02:53:03;;;;;;;13.70;4.32;;;;;;;14.88;100.00;101388.38;4899481;29;20127;-80
2021/08/15 02:55:29;;;;;;;12.65;4.38;;;;;;;14.87;100.00;101386.69;4866522;29;20493;-80
2021/08/15 02:57:54;;;;;;;12.27;4.25;;;;;;;14.84;100.00;101386.19;4887750;29;20102;-81
2021/08/15 03:00:20;;;;;;;12.55;4.40;;;;;;;14.75;100.00;101378.25;4915615;29;20032;-79
2021/08/15 03:02:45;;;;;;;12.57;4.28;;;;;;;14.76;100.00;101382.50;4892614;29;20123;-78
2021/08/15 03:05:11;;;;;;;7.88;3.58;;;;;;;14.69;100.00;101372.75;4897724;29;20036;-79
2021/08/15 03:07:37;;;;;;;11.30;4.25;;;;;;;14.68;100.00;101374.56;4889620;29;20074;-80
2021/08/15 03:10:04;;;;;;;12.65;4.35;;;;;;;14.65;100.00;101374.06;4882087;29;20108;-81
2021/08/15 03:12:30;;;;;;;9.82;4.00;;;;;;;14.59;100.00;101370.22;4898338;29;20032;-83
2021/08/15 03:14:55;;;;;;;10.65;4.15;;;;;;;14.54;100.00;101364.56;4886553;29;20032;-82
2021/08/15 03:17:21;;;;;;;10.60;4.25;;;;;;;14.55;100.00;101382.06;4881005;29;20031;-81
2021/08/15 03:19:49;;;;;;;15.27;4.47;;;;;;;14.42;100.00;101374.56;4870320;29;20715;-82
2021/08/15 03:22:15;;;;;;;8.60;4.25;;;;;;;14.38;100.00;101374.03;4873815;29;20039;-83
2021/08/15 03:24:40;;;;;;;11.38;4.05;;;;;;;14.37;100.00;101376.84;4901438;29;20036;-81
2021/08/15 03:27:06;;;;;;;13.02;4.20;;;;;;;14.37;100.00;101374.19;4886018;29;20498;-81
2021/08/15 03:29:31;;;;;;;13.50;4.50;;;;;;;14.38;100.00;101381.13;4883002;29;20487;-79
2021/08/15 03:31:57;;;;;;;11.45;4.25;;;;;;;14.34;100.00;101372.72;4887316;29;20537;-82
2021/08/15 03:34:22;;;;;;;12.38;4.22;;;;;;;14.35;100.00;101376.16;4892485;29;20044;-80
2021/08/15 03:36:48;;;;;;;11.27;4.25;;;;;;;14.38;100.00;101379.31;4887545;29;20051;-83
2021/08/15 03:39:15;;;;;;;9.27;4.00;;;;;;;14.36;100.00;101378.66;4881883;29;20044;-82
2021/08/15 03:41:40;;;;;;;7.68;3.85;;;;;;;14.40;100.00;101368.63;4889716;29;20048;-83
2021/08/15 03:44:06;;;;;;;15.90;4.53;;;;;;;14.37;100.00;101366.28;4906409;29;20332;-83
2021/08/15 03:46:33;;;;;;;13.18;4.22;;;;;;;14.34;100.00;101363.97;4895850;29;20032;-80
2021/08/15 03:48:58;;;;;;;12.88;4.18;;;;;;;14.30;100.00;101373.19;4886986;29;20040;-83
2021/08/15 03:51:24;;;;;;;14.40;4.43;;;;;;;14.33;100.00;101383.41;4900000;29;20039;-82
2021/08/15 03:53:49;;;;;;;10.90;4.65;;;;;;;14.41;100.00;101389.56;4887248;29;20063;-82
2021/08/15 03:56:15;;;;;;;14.48;5.03;;;;;;;14.46;100.00;101393.56;4884649;29;20577;-80
2021/08/15 03:58:40;;;;;;;11.40;5.30;;;;;;;14.50;100.00;101384.34;4889740;29;20048;-81
2021/08/15 04:01:06;;;;;;;15.80;5.15;;;;;;;14.45;100.00;101387.47;4891282;29;20568;-83
2021/08/15 04:03:31;;;;;;;13.75;5.40;;;;;;;14.37;100.00;101380.31;4912719;29;20042;-81
2021/08/15 04:05:59;;;;;;;14.73;5.50;;;;;;;14.50;100.00;101386.97;4881460;29;20024;-80
2021/08/15 04:08:26;;;;;;;18.90;5.88;;;;;;;14.47;100.00;101374.09;4895623;29;20040;-80
2021/08/15 04:10:52;;;;;;;15.88;5.97;;;;;;;14.51;100.00;101375.44;4893838;29;20034;-80
2021/08/15 04:13:18;;;;;;;16.33;6.50;;;;;;;14.44;100.00;101369.13;4883421;29;20514;-80
2021/08/15 04:15:44;;;;;;;13.65;5.60;;;;;;;14.47;100.00;101366.19;4892820;29;20044;-81
2021/08/15 04:18:09;;;;;;;24.65;5.60;;;;;;;14.46;100.00;101373.25;4872544;29;20490;-82
2021/08/15 04:20:35;;;;;;;17.15;6.10;;;;;;;14.44;100.00;101377.88;4903785;29;20046;-81
2021/08/15 04:23:00;;;;;;;24.63;6.78;;;;;;;14.44;100.00;101372.59;4889787;29;20459;-80
2021/08/15 04:25:26;;;;;;;19.92;7.15;;;;;;;14.41;100.00;101359.72;4894819;29;20036;-82
2021/08/15 04:27:51;;;;;;;14.85;6.63;;;;;;;14.43;100.00;101365.69;4894882;29;20410;-82
2021/08/15 04:30:17;;;;;;;17.70;7.35;;;;;;;14.46;100.00;101369.81;4912949;29;20029;-81
2021/08/15 04:32:42;;;;;;;21.25;6.75;;;;;;;14.44;100.00;101362.03;4902213;29;20066;-83
2021/08/15 04:35:08;;;;;;;16.80;7.22;;;;;;;14.48;100.00;101366.00;4865073;29;20043;-81
2021/08/15 04:37:34;;;;;;;16.30;6.43;;;;;;;14.51;100.00;101363.06;4888000;29;20036;-81
2021/08/15 04:39:59;;;;;;;18.70;7.43;;;;;;;14.48;100.00;101371.28;4887929;29;20031;-80
2021/08/15 04:42:25;;;;;;;14.43;6.97;;;;;;;14.49;100.00;101367.69;4894908;29;20035;-79
2021/08/15 04:44:50;;;;;;;23.33;7.25;;;;;;;14.49;100.00;101367.69;4892165;29;20032;-80
2021/08/15 04:47:16;;;;;;;17.98;7.35;;;;;;;14.52;100.00;101363.88;4874943;29;20151;-79
2021/08/15 04:49:41;;;;;;;17.77;7.80;;;;;;;14.50;100.00;101366.69;4906703;29;20107;-80
2021/08/15 04:52:07;;;;;;;17.60;6.85;;;;;;;14.51;100.00;101375.44;4887045;29;20670;-79
2021/08/15 04:54:33;;;;;;;12.65;6.63;;;;;;;14.47;100.00;101374.09;4915277;29;20048;-82
2021/08/15 04:56:59;;;;;;;12.98;6.80;;;;;;;14.46;100.00;101369.81;4879799;29;20705;-80
2021/08/15 04:59:25;;;;;;;14.00;6.18;;;;;;;14.46;100.00;101361.88;4879343;29;20031;-81
2021/08/15 05:01:51;;;;;;;24.27;7.43;;;;;;;14.54;100.00;101359.28;4905227;29;20055;-81
2021/08/15 05:04:17;;;;;;;13.30;6.30;;;;;;;14.51;100.00;101365.72;4867740;29;20041;-82
2021/08/15 05:06:42;;;;;;;16.65;6.60;;;;;;;14.43;100.00;101364.81;4918113;29;20044;-82
2021/08/15 05:09:08;;;;;;;13.43;6.90;;;;;;;14.45;100.00;101373.41;4916862;29;20492;-81
2021/08/15 05:11:34;;;;;;;17.73;7.97;;;;;;;14.46;100.00;101375.91;4892927;29;20039;-81
2021/08/15 05:14:00;;;;;;;20.85;7.85;;;;;;;14.50;100.00;101371.13;4869062;29;20040;-80
2021/08/15 05:16:25;;;;;;;16.02;7.65;;;;;;;14.49;100.00;101362.41;4882965;29;20131;-81
2021/08/15 05:18:51;;;;;;;17.35;7.75;;;;;;;14.58;100.00;101365.94;4907586;29;20065;-81
2021/08/15 05:21:16;;;;;;;16.50;8.30;;;;;;;14.58;100.00;101358.84;4900253;29;20071;-83
2021/08/15 05:23:42;;;;;;;15.45;8.15;;;;;;;14.57;100.00;101362.47;4883843;29;20414;-81
2021/08/15 05:26:08;;;;;;;19.25;8.38;;;;;;;14.58;100.00;101358.03;4883216;29;20033;-81
2021/08/15 05:28:34;;;;;;;16.35;8.63;;;;;;;14.65;100.00;101360.84;4883994;29;20087;-80
2021/08/15 05:30:59;;;;;;;16.67;7.45;;;;;;;14.75;100.00;101358.94;4870579;29;20063;-81
2021/08/15 05:33:25;;;;;;;17.95;9.02;;;;;;;14.73;100.00;101347.69;4902466;29;20096;-81
2021/08/15 05:35:50;;;;;;;19.10;8.73;;;;;;;14.67;100.00;101350.97;4901958;29;20170;-81
2021/08/15 05:38:16;;;;;;;20.80;8.73;;;;;;;14.79;100.00;101374.28;4883403;29;20044;-82
2021/08/15 05:40:41;;;;;;;14.85;7.95;;;;;;;14.77;100.00;101363.06;4871607;29;20068;-80
2021/08/15 05:43:07;;;;;;;14.85;7.90;;;;;;;14.78;100.00;101355.97;4888294;29;20042;-80
2021/08/15 05:45:32;;;;;;;16.52;8.77;;;;;;;14.79;100.00;101353.16;4882771;29;20051;-80
2021/08/15 05:47:58;;;;;;;17.88;8.75;;;;;;;14.82;100.00;101361.75;4899970;29;20031;-80
2021/08/15 05:50:23;;;;;;;18.70;9.00;;;;;;;14.81;100.00;101360.94;4868107;29;20099;-80
2021/08/15 05:52:49;;;;;;;15.65;8.60;;;;;;;14.85;100.00;101362.25;4885595;29;20099;-81
2021/08/15 05:55:15;;;;;;;16.05;8.57;;;;;;;14.87;100.00;101362.94;4905914;29;20032;-82
2021/08/15 05:57:40;;;;;;;17.60;8.63;;;;;;;14.79;100.00;101355.81;4881517;29;20115;-81
2021/08/15 06:00:07;;;;;;;14.15;8.27;;;;;;;14.85;100.00;101366.72;4903818;29;20039;-82
2021/08/15 06:02:38;;;;;;;15.48;7.60;;;;;;;14.85;100.00;101362.25;4887203;29;20044;-82
2021/08/15 06:05:04;;;;;;;17.75;7.82;;;;;;;14.84;100.00;101355.31;4892436;29;20462;-79
2021/08/15 06:07:30;;;;;;;18.88;8.77;;;;;;;14.81;100.00;101355.66;4897369;29;20119;-81
2021/08/15 06:09:55;;;;;;;16.00;8.40;;;;;;;14.83;100.00;101360.78;4903105;29;20111;-80
2021/08/15 06:12:21;;;;;;;16.35;7.95;;;;;;;14.77;100.00;101349.84;4892364;29;20028;-81
2021/08/15 06:14:47;;;;;;;14.43;8.32;;;;;;;14.79;100.00;101350.53;4869858;29;20078;-80
2021/08/15 06:17:12;;;;;;;16.80;9.27;;;;;;;14.84;100.00;101357.13;4880193;29;20031;-82
2021/08/15 06:19:39;;;;;;;15.70;8.77;;;;;;;14.91;100.00;101358.97;4882841;29;20095;-81
2021/08/15 06:22:04;;;;;;;15.32;8.98;;;;;;;14.93;100.00;101353.53;4868698;29;20661;-79
2021/08/15 06:24:30;;;;;;;22.48;10.00;;;;;;;14.98;100.00;101357.34;4883665;29;20048;-80
2021/08/15 06:26:56;;;;;;;17.48;9.07;;;;;;;14.99;100.00;101359.03;4901598;29;20449;-80
2021/08/15 06:29:22;;;;;;;15.00;8.82;;;;;;;14.97;100.00;101361.00;4891982;29;20482;-80
2021/08/15 06:31:47;;;;;;;15.85;9.32;;;;;;;14.99;100.00;101368.75;4885909;29;20092;-82
2021/08/15 06:34:13;;;;;;;19.77;11.23;;;;;;;14.90;100.00;101343.28;4872534;29;20044;-79
2021/08/15 06:36:38;;;;;;;18.75;10.25;;;;;;;15.01;100.00;101358.84;4880853;29;20044;-79
2021/08/15 06:39:07;;;;;;;18.98;9.90;;;;;;;15.05;100.00;101367.28;4884127;29;20099;-81
2021/08/15 06:41:33;;;;;;;21.05;10.52;;;;;;;15.05;100.00;101369.91;4881809;29;20036;-80
2021/08/15 06:43:58;;;;;;;24.85;10.20;;;;;;;14.90;100.00;101362.63;4887706;29;20043;-79
2021/08/15 06:46:24;;;;;;;18.05;9.52;;;;;;;14.92;100.00;101378.31;4883482;29;20040;-80
2021/08/15 06:48:50;;;;;;;15.05;9.27;;;;;;;14.91;100.00;101366.06;4917658;29;20400;-80
2021/08/15 06:51:16;;;;;;;17.75;10.40;;;;;;;14.92;100.00;101367.75;4903576;29;20039;-81
2021/08/15 06:53:43;;;;;;;19.33;10.35;;;;;;;14.94;100.00;101368.41;4885107;29;20042;-81
2021/08/15 06:56:10;;;;;;;17.38;9.57;;;;;;;15.01;100.00;101361.47;4866812;29;20040;-80
2021/08/15 06:58:36;;;;;;;17.20;9.95;;;;;;;15.08;100.00;101366.97;4900457;29;20451;-81
2021/08/15 07:01:03;;;;;;;22.08;10.30;;;;;;;15.12;100.00;101369.09;4870924;29;20303;-80
2021/08/15 07:03:31;;;;;;;18.85;10.30;;;;;;;15.13;100.00;101364.66;4884982;29;20032;-81
2021/08/15 07:05:57;;;;;;;18.50;9.18;;;;;;;15.14;100.00;101367.16;4873625;29;20046;-81
2021/08/15 07:08:23;;;;;;;16.75;8.35;;;;;;;15.19;100.00;101369.31;4898075;29;20478;-81
2021/08/15 07:10:49;;;;;;;17.58;8.80;;;;;;;15.26;100.00;101358.94;4884992;29;20363;-80
2021/08/15 07:13:19;;;;;;;17.73;8.15;;;;;;;15.36;100.00;101362.22;4882683;29;20739;-81
2021/08/15 07:15:46;;;;;;;16.75;7.97;;;;;;;15.38;100.00;101354.97;4892898;29;20040;-80
2021/08/15 07:18:12;;;;;;;14.88;8.60;;;;;;;15.47;100.00;101353.16;4886613;29;20490;-82
2021/08/15 07:20:37;;;;;;;15.85;7.88;;;;;;;15.56;100.00;101357.47;4867854;29;20074;-82
2021/08/15 07:23:03;;;;;;;18.33;8.57;;;;;;;15.69;100.00;101362.25;4877350;29;20024;-81
2021/08/15 07:25:29;;;;;;;14.85;8.07;;;;;;;15.79;100.00;101357.66;4899955;29;20067;-83
2021/08/15 07:27:55;;;;;;;14.57;6.85;;;;;;;15.87;100.00;101356.84;4885438;29;20363;-81
2021/08/15 07:30:21;;;;;;;24.58;7.88;;;;;;;15.90;100.00;101357.34;4901625;29;20083;-80
2021/08/15 07:32:51;;;;;;;15.32;6.45;;;;;;;15.93;100.00;101356.16;4870100;29;20040;-83
2021/08/15 07:35:17;;;;;;;16.42;7.32;;;;;;;15.87;100.00;101357.66;4882258;29;20163;-79
2021/08/15 07:37:43;;;;;;;15.23;7.22;;;;;;;15.84;100.00;101367.75;4887639;29;20483;-80
2021/08/15 07:40:09;;;;;;;13.93;6.90;;;;;;;15.87;100.00;101365.59;4879510;29;20036;-81
2021/08/15 07:42:34;;;;;;;18.35;6.95;;;;;;;15.86;100.00;101360.47;4871792;29;20086;-79
2021/08/15 07:45:00;;;;;;;15.80;6.38;;;;;;;15.86;100.00;101355.16;4871607;29;20032;-83
2021/08/15 07:47:25;;;;;;;13.93;6.90;;;;;;;15.95;100.00;101355.03;4900073;29;20036;-81
2021/08/15 07:49:51;;;;;;;18.20;7.82;;;;;;;15.97;100.00;101349.53;4893534;29;20036;-80
2021/08/15 07:52:16;;;;;;;18.00;7.38;;;;;;;15.92;100.00;101343.94;4880579;29;20512;-79
2021/08/15 07:54:42;;;;;;;13.88;7.00;;;;;;;15.92;100.00;101343.94;4896475;29;20507;-81
2021/08/15 07:57:07;;;;;;;16.45;7.68;;;;;;;15.89;100.00;101345.09;4887119;29;20036;-81
2021/08/15 07:59:33;;;;;;;19.33;7.28;;;;;;;15.82;100.00;101343.28;4882956;29;20382;-80
2021/08/15 08:01:58;;;;;;;18.38;7.43;;;;;;;15.85;100.00;101346.41;4879427;29;20043;-81
2021/08/15 08:04:24;;;;;;;17.08;7.47;;;;;;;15.82;100.00;101343.28;4886462;29;20038;-80
2021/08/15 08:06:50;;;;;;;17.23;7.32;;;;;;;15.86;100.00;101349.88;4896430;29;20418;-79
2021/08/15 08:09:16;;;;;;;16.23;7.30;;;;;;;15.87;100.00;101335.69;4917701;29;20036;-82
2021/08/15 08:11:41;;;;;;;17.35;7.25;;;;;;;16.07;100.00;101358.16;4882991;29;20051;-80
2021/08/15 08:14:07;;;;;;;13.35;7.38;;;;;;;16.20;100.00;101354.13;4878359;29;20482;-80
2021/08/15 08:16:33;;;;;;;14.98;7.15;;;;;;;16.26;100.00;101356.13;4880582;29;20047;-80
2021/08/15 08:18:58;;;;;;;15.73;6.85;;;;;;;16.14;100.00;101366.22;4863657;29;20033;-79
2021/08/15 08:21:25;;;;;;;11.40;6.65;;;;;;;16.06;100.00;101351.19;4898424;29;20040;-81
2021/08/15 08:23:50;;;;;;;13.63;7.18;;;;;;;16.11;100.00;101363.94;4879902;29;20151;-80
2021/08/15 08:26:16;;;;;;;13.15;6.82;;;;;;;16.08;100.00;101348.38;4880483;29;20068;-79
2021/08/15 08:28:41;;;;;;;12.18;6.93;;;;;;;16.20;100.00;101349.69;4908784;29;20040;-80
2021/08/15 08:31:07;;;;;;;11.43;6.40;;;;;;;16.31;100.00;101346.69;4868215;29;20047;-80
2021/08/15 08:33:32;;;;;;;17.05;6.63;;;;;;;16.46;100.00;101344.16;4899911;29;20123;-79
2021/08/15 08:35:58;;;;;;;11.68;6.90;;;;;;;16.55;100.00;101337.00;4878202;29;20589;-81
2021/08/15 08:38:23;;;;;;;13.05;6.57;;;;;;;16.68;100.00;101349.69;4885760;29;20039;-80
2021/08/15 08:40:50;;;;;;;14.55;6.70;;;;;;;16.48;100.00;101346.63;4872257;29;21142;-81
2021/08/15 08:43:19;;;;;;;16.77;7.13;;;;;;;16.36;100.00;101351.47;4904558;29;20118;-79
2021/08/15 08:45:46;;;;;;;16.95;7.32;;;;;;;16.31;100.00;101348.50;4919728;29;20028;-80
2021/08/15 08:48:14;;;;;;;12.95;7.03;;;;;;;16.31;100.00;101338.75;4910732;29;20075;-84
2021/08/15 08:50:40;;;;;;;13.45;7.28;;;;;;;16.35;100.00;101344.53;4900482;29;20062;-81
2021/08/15 08:53:06;;;;;;;20.17;7.40;;;;;;;16.46;100.00;101340.66;4908035;29;20521;-79
2021/08/15 08:55:32;;;;;;;15.75;7.60;;;;;;;16.45;100.00;101337.22;4886017;29;20031;-79
2021/08/15 08:57:57;;;;;;;17.77;7.07;;;;;;;16.56;100.00;101330.72;4900055;29;20046;-79
2021/08/15 09:00:23;;;;;;;23.20;8.40;;;;;;;16.61;100.00;101328.38;4885350;29;20549;-79
2021/08/15 09:02:48;;;;;;;13.60;7.20;;;;;;;16.69;100.00;101338.13;4898582;29;20078;-79
2021/08/15 09:05:14;;;;;;;16.40;7.25;;;;;;;16.72;100.00;101335.94;4894079;29;20029;-81
2021/08/15 09:07:41;;;;;;;20.42;9.00;;;;;;;16.72;100.00;101343.06;4893718;29;20095;-80
2021/08/15 09:10:11;;;;;;;13.63;8.15;;;;;;;16.68;100.00;101336.47;4887957;29;20055;-81
2021/08/15 09:12:43;;;;;;;23.05;10.70;;;;;;;16.67;100.00;101337.44;4883843;29;20111;-79
2021/08/15 09:15:30;;;;;;;26.30;11.10;;;;;;;16.53;100.00;101325.75;4904530;29;20047;-79
2021/08/15 09:17:56;;;;;;;28.52;12.48;;;;;;;16.47;100.00;101329.09;4891771;29;20618;-81
2021/08/15 09:20:37;;;;;;;33.13;12.98;;;;;;;16.42;100.00;101321.66;4918421;29;20040;-81
2021/08/15 09:23:18;;;;;;;28.17;12.13;;;;;;;16.43;100.00;101322.50;4893317;29;20043;-80
2021/08/15 09:25:44;;;;;;;25.83;12.05;;;;;;;16.47;100.00;101321.16;4867176;29;20446;-80
2021/08/15 09:28:09;;;;;;;22.35;11.32;;;;;;;16.50;100.00;101319.00;4927245;29;20039;-81
2021/08/15 09:30:34;;;;;;;23.50;11.70;;;;;;;16.61;100.00;101315.13;4875780;29;20095;-81
2021/08/15 09:33:03;;;;;;;31.25;12.20;;;;;;;16.80;100.00;101319.19;4887508;29;20119;-81
2021/08/15 09:35:28;;;;;;;24.83;11.98;;;;;;;16.85;100.00;101318.69;4902915;29;20040;-81
2021/08/15 09:37:57;;;;;;;25.50;11.07;;;;;;;16.94;100.00;101312.34;4886741;29;20048;-79
2021/08/15 09:40:24;;;;;;;34.05;13.02;;;;;;;17.03;100.00;101307.84;4888700;29;20032;-81
2021/08/15 09:42:50;;;;;;;29.70;12.50;;;;;;;17.05;100.00;101297.88;4910702;29;20042;-81
2021/08/15 09:45:31;;;;;;;27.92;11.70;;;;;;;17.15;97.48;101305.59;4903342;29;20024;-80
2021/08/15 09:47:57;;;;;;;29.67;12.65;;;;;;;17.39;99.15;101301.97;4874984;29;20070;-80
2021/08/15 09:50:23;;;;;;;23.83;12.05;;;;;;;17.52;94.83;101303.00;4929660;29;20028;-80
2021/08/15 09:52:50;;;;;;;29.08;11.40;;;;;;;17.62;94.02;101307.22;4910635;29;20028;-80
2021/08/15 09:55:16;;;;;;;25.90;12.20;;;;;;;17.70;95.56;101301.84;4871390;29;20068;-79
2021/08/15 09:57:42;;;;;;;26.80;11.52;;;;;;;17.73;98.39;101295.38;4892061;29;20442;-83
2021/08/15 10:00:20;;;;;;;25.13;12.32;;;;;;;17.87;96.62;101292.75;4889835;29;20130;-81
2021/08/15 10:02:47;;;;;;;28.67;12.75;;;;;;;17.88;97.15;101283.78;4896910;29;20051;-82
2021/08/15 10:05:12;;;;;;;25.25;12.10;;;;;;;17.88;94.12;101290.94;4870511;29;20029;-83
2021/08/15 10:07:39;;;;;;;28.83;12.15;;;;;;;17.77;92.18;101276.25;4867397;29;20035;-80
2021/08/15 10:10:05;;;;;;;25.05;12.27;;;;;;;17.73;95.48;101282.09;4884728;29;20047;-79
2021/08/15 10:12:32;;;;;;;32.47;14.20;;;;;;;17.62;95.25;101281.53;4901467;29;20048;-82
2021/08/15 10:14:58;;;;;;;28.90;13.35;;;;;;;17.63;95.81;101279.69;4908264;29;20695;-80
2021/08/15 10:17:29;;;;;;;33.95;14.98;;;;;;;17.52;96.67;101281.78;4890604;29;20036;-81
2021/08/15 10:19:59;;;;;;;27.80;13.35;;;;;;;17.47;96.97;101278.00;4887906;29;20039;-82
2021/08/15 10:22:28;;;;;;;29.92;13.70;;;;;;;17.63;97.91;101277.03;4892165;29;20046;-80
2021/08/15 10:24:57;;;;;;;31.00;13.45;;;;;;;17.76;99.66;101273.78;4905454;29;20032;-83
2021/08/15 10:27:38;;;;;;;33.10;13.85;;;;;;;17.86;96.89;101271.72;4900581;29;20035;-81
2021/08/15 10:30:24;;;;;;;29.75;13.48;;;;;;;17.97;92.84;101273.09;4887547;29;20043;-81
2021/08/15 10:32:56;;;;;;;29.08;13.40;;;;;;;18.20;93.44;101270.38;4889334;29;20175;-79
2021/08/15 10:35:25;;;;;;;30.38;13.95;;;;;;;18.34;96.58;101266.84;4882530;29;20039;-80
2021/08/15 10:38:16;;;;;;;30.98;14.20;;;;;;;18.44;92.12;101266.56;4887137;29;20050;-82
2021/08/15 10:40:41;;;;;;;28.95;13.57;;;;;;;18.49;90.28;101269.50;4899601;29;20199;-82
2021/08/15 10:43:12;;;;;;;28.35;13.38;;;;;;;18.26;89.50;101266.97;4870548;29;20834;-81
2021/08/15 10:45:38;;;;;;;30.52;14.13;;;;;;;18.39;90.10;101263.66;4891752;29;20028;-82
2021/08/15 10:48:11;;;;;;;30.23;12.68;;;;;;;18.59;91.34;101264.72;4886985;29;20027;-82
2021/08/15 10:50:46;;;;;;;32.15;13.93;;;;;;;18.90;89.19;101254.88;4908070;29;20054;-80
2021/08/15 10:53:39;;;;;;;30.90;14.43;;;;;;;19.19;86.85;101249.44;4919724;29;20048;-81
2021/08/15 10:56:09;;;;;;;31.27;13.25;;;;;;;19.41;85.97;101255.53;4884754;29;20036;-82
2021/08/15 10:58:39;;;;;;;33.53;13.90;;;;;;;19.73;88.80;101242.69;4885341;29;20031;-83
2021/08/15 11:01:16;;;;;;;29.00;12.75;;;;;;;19.99;82.75;101243.88;4876964;29;20042;-78
2021/08/15 11:03:47;;;;;;;28.55;12.80;;;;;;;20.16;81.85;101245.19;4911528;29;20034;-81
2021/08/15 11:06:31;;;;;;;36.47;14.83;;;;;;;20.20;81.43;101242.94;4868183;29;20391;-82
2021/08/15 11:09:02;;;;;;;25.85;11.57;;;;;;;20.64;79.27;101248.88;4887774;29;20046;-81